createdAt,value
2019-03-29T00:01:09.404Z,103242.11
2019-03-29T00:03:37.919Z,103240.71
2019-03-29T00:06:06.388Z,103241.13
2019-03-29T00:08:35.971Z,103243.20
2019-03-29T00:11:04.544Z,103240.03
2019-03-29T00:13:32.999Z,103239.25
2019-03-29T00:16:01.470Z,103234.84
2019-03-29T00:18:29.969Z,103235.25
2019-03-29T00:20:58.430Z,103234.47
2019-03-29T00:23:26.893Z,103225.60
2019-03-29T00:25:55.415Z,103229.19
2019-03-29T00:28:23.889Z,103230.48
2019-03-29T00:30:52.328Z,103228.20
2019-03-29T00:33:20.858Z,103228.91
2019-03-29T00:35:49.600Z,103213.43
2019-03-29T00:38:18.131Z,103209.68
2019-03-29T00:40:46.637Z,103208.42
2019-03-29T00:43:15.105Z,103208.55
2019-03-29T00:45:43.551Z,103209.89
2019-03-29T00:48:12.038Z,103203.54
2019-03-29T00:50:40.494Z,103207.56
2019-03-29T00:53:09.182Z,103211.69
2019-03-29T00:55:37.913Z,103208.89
2019-03-29T00:58:06.367Z,103209.59
2019-03-29T01:00:34.839Z,103218.08
2019-03-29T01:03:03.471Z,103211.53
2019-03-29T01:05:31.929Z,103210.55
2019-03-29T01:08:07.651Z,103209.86
2019-03-29T01:10:30.631Z,103207.98
2019-03-29T01:12:59.254Z,103199.86
2019-03-29T01:15:27.718Z,103203.56
2019-03-29T01:17:56.184Z,103203.36
2019-03-29T01:20:24.639Z,103206.28
2019-03-29T01:22:53.092Z,103197.82
2019-03-29T01:25:21.585Z,103197.64
2019-03-29T01:27:50.038Z,103199.13
2019-03-29T01:30:18.571Z,103205.94
2019-03-29T01:32:47.065Z,103208.02
2019-03-29T01:35:15.529Z,103207.02
2019-03-29T01:37:44.288Z,103204.02
2019-03-29T01:40:13.018Z,103203.73
2019-03-29T01:42:41.493Z,103203.42
2019-03-29T01:45:10.822Z,103198.42
2019-03-29T01:47:39.329Z,103190.05
2019-03-29T01:50:08.156Z,103185.94
2019-03-29T01:52:37.086Z,103186.93
2019-03-29T01:55:06.819Z,103181.45
2019-03-29T01:57:35.364Z,103187.20
2019-03-29T02:00:03.958Z,103179.92
2019-03-29T02:02:32.445Z,103182.31
2019-03-29T02:05:01.191Z,103172.94
2019-03-29T02:07:30.074Z,103175.13
2019-03-29T02:09:58.597Z,103179.70
2019-03-29T02:12:27.065Z,103184.53
2019-03-29T02:14:55.601Z,103182.05
2019-03-29T02:17:24.107Z,103178.27
2019-03-29T02:19:52.564Z,103181.75
2019-03-29T02:22:21.028Z,103180.14
2019-03-29T02:24:50.045Z,103183.39
2019-03-29T02:27:18.675Z,103180.02
2019-03-29T02:29:47.138Z,103180.59
2019-03-29T02:32:15.622Z,103185.95
2019-03-29T02:34:44.241Z,103188.70
2019-03-29T02:37:12.719Z,103187.20
2019-03-29T02:39:41.383Z,103185.20
2019-03-29T02:42:09.856Z,103192.16
2019-03-29T02:44:38.319Z,103188.37
2019-03-29T02:49:40.730Z,103188.44
2019-03-29T02:52:09.188Z,103187.96
2019-03-29T02:54:37.690Z,103185.78
2019-03-29T02:57:06.166Z,103195.02
2019-03-29T02:59:34.625Z,103190.55
2019-03-29T03:02:03.229Z,103190.04
2019-03-29T03:04:31.708Z,103188.74
2019-03-29T03:07:00.180Z,103190.86
2019-03-29T03:09:28.674Z,103194.34
2019-03-29T03:11:57.152Z,103197.91
2019-03-29T03:14:25.658Z,103198.33
2019-03-29T03:16:54.140Z,103196.04
2019-03-29T03:19:22.603Z,103193.75
2019-03-29T03:21:51.088Z,103198.53
2019-03-29T03:24:19.606Z,103199.04
2019-03-29T03:26:48.085Z,103192.87
2019-03-29T03:29:16.643Z,103194.98
2019-03-29T03:31:45.197Z,103193.99
2019-03-29T03:34:13.709Z,103187.82
2019-03-29T03:36:42.261Z,103188.13
2019-03-29T03:39:10.762Z,103190.24
2019-03-29T03:41:39.559Z,103190.24
2019-03-29T03:44:08.019Z,103192.42
2019-03-29T03:46:36.528Z,103196.89
2019-03-29T03:49:05.052Z,103194.41
2019-03-29T03:51:33.661Z,103194.06
2019-03-29T03:54:02.185Z,103193.69
2019-03-29T03:56:31.716Z,103195.87
2019-03-29T03:59:00.246Z,103201.84
2019-03-29T04:01:28.746Z,103199.17
2019-03-29T04:03:57.282Z,103199.66
2019-03-29T04:06:25.769Z,103201.77
2019-03-29T04:08:54.293Z,103202.76
2019-03-29T04:11:22.742Z,103201.94
2019-03-29T04:13:51.209Z,103202.83
2019-03-29T04:16:19.707Z,103197.75
2019-03-29T04:18:48.184Z,103206.00
2019-03-29T04:21:16.654Z,103199.52
2019-03-29T04:23:45.235Z,103201.80
2019-03-29T04:26:13.705Z,103197.09
2019-03-29T04:28:42.177Z,103200.68
2019-03-29T04:31:10.680Z,103202.08
2019-03-29T04:33:39.165Z,103199.48
2019-03-29T04:36:07.676Z,103200.85
2019-03-29T04:38:36.172Z,103201.77
2019-03-29T04:41:04.810Z,103201.77
2019-03-29T04:43:34.322Z,103201.05
2019-03-29T04:46:02.809Z,103198.46
2019-03-29T04:48:31.274Z,103196.83
2019-03-29T04:50:59.738Z,103206.00
2019-03-29T04:53:28.294Z,103199.04
2019-03-29T04:55:56.765Z,103205.11
2019-03-29T04:58:26.875Z,103206.51
2019-03-29T05:00:55.399Z,103206.17
2019-03-29T05:03:23.848Z,103202.28
2019-03-29T05:05:52.330Z,103204.97
2019-03-29T05:08:20.840Z,103206.37
2019-03-29T05:10:49.290Z,103205.66
2019-03-29T05:13:17.759Z,103206.13
2019-03-29T05:15:46.251Z,103210.19
2019-03-29T05:18:14.715Z,103211.48
2019-03-29T05:20:43.178Z,103211.48
2019-03-29T05:23:11.662Z,103209.78
2019-03-29T05:25:40.140Z,103214.48
2019-03-29T05:28:08.613Z,103210.59
2019-03-29T05:30:37.114Z,103209.78
2019-03-29T05:33:05.606Z,103206.88
2019-03-29T05:35:34.039Z,103208.27
2019-03-29T05:38:02.540Z,103203.97
2019-03-29T05:40:35.284Z,103203.66
2019-03-29T05:43:01.174Z,103198.07
2019-03-29T05:45:29.729Z,103202.44
2019-03-29T05:47:58.202Z,103195.23
2019-03-29T05:50:26.679Z,103195.33
2019-03-29T05:52:55.263Z,103198.50
2019-03-29T05:55:32.570Z,103201.67
2019-03-29T05:57:53.950Z,103198.77
2019-03-29T06:00:22.529Z,103192.86
2019-03-29T06:02:50.992Z,103195.14
2019-03-29T06:05:19.462Z,103193.13
2019-03-29T06:07:47.977Z,103193.70
2019-03-29T06:10:16.433Z,103186.90
2019-03-29T06:12:44.908Z,103187.84
2019-03-29T06:15:13.475Z,103188.83
2019-03-29T06:17:48.581Z,103186.75
2019-03-29T06:20:12.485Z,103186.44
2019-03-29T06:22:40.989Z,103186.13
2019-03-29T06:25:09.556Z,103179.33
2019-03-29T06:27:38.014Z,103185.40
2019-03-29T06:30:08.052Z,103181.19
2019-03-29T06:32:36.520Z,103183.00
2019-03-29T06:35:07.426Z,103176.52
2019-03-29T06:37:36.857Z,103172.28
2019-03-29T06:40:08.493Z,103175.44
2019-03-29T06:42:36.984Z,103175.28
2019-03-29T06:45:06.772Z,103178.45
2019-03-29T06:47:35.434Z,103172.57
2019-03-29T06:50:05.741Z,103172.79
2019-03-29T06:52:34.232Z,103173.45
2019-03-29T06:55:02.699Z,103166.71
2019-03-29T06:57:31.163Z,103173.86
2019-03-29T06:59:59.699Z,103172.31
2019-03-29T07:02:28.153Z,103171.67
2019-03-29T07:04:56.643Z,103163.66
2019-03-29T07:07:25.171Z,103166.47
2019-03-29T07:09:53.633Z,103167.39
2019-03-29T07:12:22.107Z,103172.65
2019-03-29T07:14:50.590Z,103175.34
2019-03-29T07:17:19.052Z,103178.50
2019-03-29T07:19:47.672Z,103180.78
2019-03-29T07:22:16.193Z,103176.95
2019-03-29T07:24:44.651Z,103182.80
2019-03-29T07:27:13.120Z,103186.94
2019-03-29T07:29:41.618Z,103189.78
2019-03-29T07:32:10.091Z,103183.86
2019-03-29T07:34:38.556Z,103184.80
2019-03-29T07:37:07.083Z,103182.70
2019-03-29T07:39:35.539Z,103180.27
2019-03-29T07:42:04.021Z,103180.41
2019-03-29T07:44:32.591Z,103178.06
2019-03-29T07:47:01.069Z,103174.81
2019-03-29T07:49:30.547Z,103175.53
2019-03-29T07:51:59.040Z,103176.09
2019-03-29T07:54:27.504Z,103172.44
2019-03-29T07:56:55.968Z,103175.27
2019-03-29T07:59:24.472Z,103170.22
2019-03-29T08:01:53.461Z,103169.06
2019-03-29T08:04:23.834Z,103170.04
2019-03-29T08:06:52.150Z,103171.98
2019-03-29T08:09:22.592Z,103169.53
2019-03-29T08:11:50.809Z,103166.75
2019-03-29T08:14:19.333Z,103160.81
2019-03-29T08:16:47.792Z,103166.16
2019-03-29T08:19:16.257Z,103165.41
2019-03-29T08:21:44.780Z,103161.98
2019-03-29T08:24:13.261Z,103167.36
2019-03-29T08:26:41.736Z,103166.29
2019-03-29T08:29:10.227Z,103165.69
2019-03-29T08:31:38.687Z,103167.39
2019-03-29T08:34:07.170Z,103162.47
2019-03-29T08:36:35.676Z,103162.36
2019-03-29T08:39:06.632Z,103160.95
2019-03-29T08:41:36.459Z,103166.44
2019-03-29T08:44:04.966Z,103160.23
2019-03-29T08:46:33.433Z,103167.90
2019-03-29T08:49:01.919Z,103166.06
2019-03-29T08:51:30.544Z,103163.73
2019-03-29T08:53:59.012Z,103168.02
2019-03-29T08:56:27.484Z,103169.92
2019-03-29T08:58:56.003Z,103168.92
2019-03-29T09:01:24.453Z,103168.21
2019-03-29T09:04:04.700Z,103163.64
2019-03-29T09:06:23.162Z,103168.55
2019-03-29T09:08:51.706Z,103167.42
2019-03-29T09:11:20.173Z,103162.80
2019-03-29T09:13:48.669Z,103151.30
2019-03-29T09:16:17.136Z,103148.94
2019-03-29T09:18:45.602Z,103152.30
2019-03-29T09:21:14.124Z,103144.77
2019-03-29T09:23:42.585Z,103145.09
2019-03-29T09:26:11.120Z,103139.25
2019-03-29T09:28:39.921Z,103147.39
2019-03-29T09:31:08.379Z,103149.47
2019-03-29T09:33:36.846Z,103144.99
2019-03-29T09:36:05.494Z,103146.19
2019-03-29T09:38:33.994Z,103140.33
2019-03-29T09:41:02.483Z,103135.84
2019-03-29T09:43:32.746Z,103136.92
2019-03-29T09:46:03.337Z,103135.39
2019-03-29T09:48:34.427Z,103132.51
2019-03-29T09:51:01.644Z,103125.22
2019-03-29T09:53:30.385Z,103118.04
2019-03-29T09:55:58.846Z,103116.43
2019-03-29T09:58:27.348Z,103116.16
2019-03-29T10:00:55.808Z,103111.58
2019-03-29T10:03:24.286Z,103108.31
2019-03-29T10:05:52.777Z,103108.56
2019-03-29T10:08:21.246Z,103104.06
2019-03-29T10:10:49.700Z,103102.62
2019-03-29T10:13:18.192Z,103103.26
2019-03-29T10:15:46.662Z,103104.42
2019-03-29T10:18:15.131Z,103099.48
2019-03-29T10:20:43.628Z,103097.11
2019-03-29T10:23:12.095Z,103102.05
2019-03-29T10:25:40.546Z,103103.49
2019-03-29T10:28:09.063Z,103101.34
2019-03-29T10:30:42.076Z,103098.20
2019-03-29T10:33:10.547Z,103095.52
2019-03-29T10:35:51.007Z,103096.37
2019-03-29T10:38:09.298Z,103094.43
2019-03-29T10:40:37.757Z,103086.84
2019-03-29T10:43:06.391Z,103080.99
2019-03-29T10:45:39.786Z,103074.71
2019-03-29T10:48:05.217Z,103075.38
2019-03-29T10:50:33.785Z,103080.89
2019-03-29T10:53:02.258Z,103075.48
2019-03-29T10:55:30.962Z,103080.92
2019-03-29T10:57:59.444Z,103071.95
2019-03-29T11:00:36.345Z,103067.33
2019-03-29T11:03:05.292Z,103062.77
2019-03-29T11:05:33.754Z,103067.81
2019-03-29T11:08:02.297Z,103060.41
2019-03-29T11:10:38.621Z,103057.80
2019-03-29T11:13:13.079Z,103057.87
2019-03-29T11:15:37.335Z,103060.94
2019-03-29T11:18:06.204Z,103060.16
2019-03-29T11:20:34.662Z,103058.02
2019-03-29T11:23:03.127Z,103058.16
2019-03-29T11:25:31.698Z,103049.02
2019-03-29T11:28:00.172Z,103043.31
2019-03-29T11:30:41.444Z,103049.38
2019-03-29T11:32:58.858Z,103045.46
2019-03-29T11:35:27.386Z,103041.58
2019-03-29T11:37:55.840Z,103044.19
2019-03-29T11:40:24.374Z,103035.63
2019-03-29T11:42:52.919Z,103036.61
2019-03-29T11:45:21.401Z,103037.22
2019-03-29T11:47:49.905Z,103032.13
2019-03-29T11:50:18.427Z,103033.61
2019-03-29T11:52:46.887Z,103029.80
2019-03-29T11:55:15.441Z,103021.58
2019-03-29T11:57:44.008Z,103022.89
2019-03-29T12:00:13.063Z,103012.48
2019-03-29T12:02:41.583Z,103012.55
2019-03-29T12:05:10.063Z,103015.27
2019-03-29T12:07:50.959Z,103008.03
2019-03-29T12:10:19.458Z,103014.66
2019-03-29T12:12:47.909Z,103017.80
2019-03-29T12:15:16.444Z,103012.73
2019-03-29T12:17:44.956Z,103009.45
2019-03-29T12:20:13.485Z,103013.53
2019-03-29T12:22:41.938Z,103007.14
2019-03-29T12:25:10.517Z,102999.01
2019-03-29T12:27:38.973Z,102999.92
2019-03-29T12:30:11.005Z,103006.00
2019-03-29T12:32:39.491Z,103001.12
2019-03-29T12:35:09.996Z,102998.06
2019-03-29T12:37:38.231Z,102995.31
2019-03-29T12:40:08.337Z,102986.53
2019-03-29T12:42:36.792Z,102985.23
2019-03-29T12:45:08.168Z,102982.13
2019-03-29T12:47:36.649Z,102979.05
2019-03-29T12:50:08.498Z,102978.99
2019-03-29T12:52:37.013Z,102978.53
2019-03-29T12:55:06.084Z,102978.89
2019-03-29T12:57:34.586Z,102971.91
2019-03-29T13:00:05.083Z,102968.34
2019-03-29T13:02:34.630Z,102968.70
2019-03-29T13:05:03.573Z,102963.81
2019-03-29T13:07:32.143Z,102971.05
2019-03-29T13:10:00.643Z,102964.88
2019-03-29T13:12:29.113Z,102959.66
2019-03-29T13:14:57.554Z,102955.74
2019-03-29T13:17:28.455Z,102945.27
2019-03-29T13:19:56.240Z,102947.48
2019-03-29T13:22:24.844Z,102947.62
2019-03-29T13:24:53.480Z,102951.21
2019-03-29T13:27:22.017Z,102936.52
2019-03-29T13:29:50.479Z,102932.73
2019-03-29T13:32:19.000Z,102938.09
2019-03-29T13:34:51.093Z,102934.30
2019-03-29T13:37:17.711Z,102931.33
2019-03-29T13:39:46.235Z,102927.47
2019-03-29T13:42:14.696Z,102930.15
2019-03-29T13:44:43.156Z,102926.69
2019-03-29T13:47:11.652Z,102920.25
2019-03-29T13:49:40.123Z,102921.69
2019-03-29T13:52:08.590Z,102915.70
2019-03-29T13:54:37.759Z,102907.08
2019-03-29T13:57:06.220Z,102901.04
2019-03-29T13:59:34.669Z,102901.13
2019-03-29T14:02:03.502Z,102896.42
2019-03-29T14:04:31.967Z,102890.05
2019-03-29T14:07:08.205Z,102888.38
2019-03-29T14:09:36.716Z,102886.21
2019-03-29T14:12:05.220Z,102887.16
2019-03-29T14:14:38.605Z,102882.02
2019-03-29T14:17:03.889Z,102872.95
2019-03-29T14:19:32.349Z,102872.25
2019-03-29T14:22:00.815Z,102867.57
2019-03-29T14:24:29.318Z,102861.06
2019-03-29T14:26:57.941Z,102858.94
2019-03-29T14:29:26.386Z,102861.13
2019-03-29T14:31:54.928Z,102851.13
2019-03-29T14:34:23.397Z,102853.31
2019-03-29T14:36:51.855Z,102848.05
2019-03-29T14:39:20.347Z,102845.81
2019-03-29T14:41:48.795Z,102839.70
2019-03-29T14:44:17.254Z,102835.80
2019-03-29T14:46:45.748Z,102830.19
2019-03-29T14:49:14.208Z,102831.06
2019-03-29T14:51:42.667Z,102825.41
2019-03-29T14:54:11.149Z,102828.98
2019-03-29T14:56:41.770Z,102822.08
2019-03-29T14:59:09.781Z,102821.80
2019-03-29T15:01:38.298Z,102820.57
2019-03-29T15:04:06.864Z,102814.55
2019-03-29T15:06:35.318Z,102816.42
2019-03-29T15:09:05.851Z,102805.13
2019-03-29T15:11:38.998Z,102797.31
2019-03-29T15:14:07.460Z,102795.69
2019-03-29T15:16:35.944Z,102797.08
2019-03-29T15:19:04.396Z,102784.00
2019-03-29T15:21:32.848Z,102783.66
2019-03-29T15:24:01.477Z,102777.60
2019-03-29T15:26:30.071Z,102786.27
2019-03-29T15:28:58.542Z,102777.03
2019-03-29T15:31:27.031Z,102773.03
2019-03-29T15:33:55.897Z,102763.38
2019-03-29T15:36:24.456Z,102772.53
2019-03-29T15:38:53.029Z,102764.50
2019-03-29T15:41:21.489Z,102762.25
2019-03-29T15:43:50.024Z,102763.98
2019-03-29T15:46:18.519Z,102764.36
2019-03-29T15:48:46.974Z,102759.93
2019-03-29T15:51:15.446Z,102756.81
2019-03-29T15:53:43.943Z,102750.62
2019-03-29T15:56:12.393Z,102756.22
2019-03-29T15:58:40.867Z,102751.37
2019-03-29T16:01:09.427Z,102752.59
2019-03-29T16:03:37.886Z,102751.27
2019-03-29T16:06:06.714Z,102742.51
2019-03-29T16:08:35.197Z,102740.27
2019-03-29T16:11:03.669Z,102736.03
2019-03-29T16:13:32.131Z,102732.67
2019-03-29T16:16:00.634Z,102731.45
2019-03-29T16:18:30.732Z,102731.89
2019-03-29T16:20:59.201Z,102726.22
2019-03-29T16:23:27.838Z,102723.62
2019-03-29T16:25:56.297Z,102717.09
2019-03-29T16:28:24.755Z,102714.40
2019-03-29T16:30:53.280Z,102712.96
2019-03-29T16:33:21.755Z,102719.20
2019-03-29T16:35:50.225Z,102713.25
2019-03-29T16:38:18.715Z,102707.28
2019-03-29T16:40:47.186Z,102705.76
2019-03-29T16:43:15.661Z,102705.53
2019-03-29T16:45:48.060Z,102697.46
2019-03-29T16:48:14.343Z,102692.44
2019-03-29T16:50:42.810Z,102693.94
2019-03-29T16:53:11.313Z,102691.52
2019-03-29T16:55:39.781Z,102690.86
2019-03-29T16:58:08.241Z,102684.97
2019-03-29T17:00:36.757Z,102686.98
2019-03-29T17:03:05.415Z,102692.07
2019-03-29T17:05:33.951Z,102695.59
2019-03-29T17:08:05.278Z,102687.06
2019-03-29T17:10:33.064Z,102689.95
2019-03-29T17:13:01.827Z,102686.09
2019-03-29T17:15:30.335Z,102687.76
2019-03-29T17:17:58.818Z,102682.39
2019-03-29T17:20:27.276Z,102685.25
2019-03-29T17:22:55.779Z,102684.52
2019-03-29T17:25:24.236Z,102682.81
2019-03-29T17:27:52.731Z,102677.62
2019-03-29T17:30:24.476Z,102680.73
2019-03-29T17:32:52.946Z,102678.06
2019-03-29T17:35:21.408Z,102672.42
2019-03-29T17:37:49.906Z,102673.20
2019-03-29T17:40:18.444Z,102673.25
2019-03-29T17:42:47.157Z,102670.27
2019-03-29T17:45:15.694Z,102668.17
2019-03-29T17:47:44.213Z,102666.45
2019-03-29T17:50:12.746Z,102664.41
2019-03-29T17:52:41.255Z,102670.14
2019-03-29T17:55:09.800Z,102661.59
2019-03-29T17:57:38.258Z,102663.03
2019-03-29T18:00:08.521Z,102669.70
2019-03-29T18:02:37.150Z,102669.41
2019-03-29T18:05:06.983Z,102667.39
2019-03-29T18:07:35.485Z,102661.05
2019-03-29T18:10:06.654Z,102659.52
2019-03-29T18:12:35.143Z,102664.88
2019-03-29T18:15:08.512Z,102660.80
2019-03-29T18:17:36.979Z,102661.41
2019-03-29T18:20:07.364Z,102660.22
2019-03-29T18:22:35.854Z,102663.05
2019-03-29T18:25:06.116Z,102669.36
2019-03-29T18:27:34.571Z,102664.80
2019-03-29T18:30:04.753Z,102661.13
2019-03-29T18:32:33.596Z,102657.03
2019-03-29T18:35:02.076Z,102653.81
2019-03-29T18:37:31.370Z,102645.36
2019-03-29T18:39:59.840Z,102650.44
2019-03-29T18:42:28.311Z,102648.52
2019-03-29T18:44:56.817Z,102644.42
2019-03-29T18:47:25.291Z,102643.76
2019-03-29T18:49:53.776Z,102650.97
2019-03-29T18:52:22.282Z,102646.91
2019-03-29T18:54:50.788Z,102640.63
2019-03-29T18:57:19.402Z,102645.70
2019-03-29T18:59:48.144Z,102639.55
2019-03-29T19:02:16.552Z,102642.86
2019-03-29T19:04:45.016Z,102641.82
2019-03-29T19:07:13.570Z,102645.51
2019-03-29T19:09:42.046Z,102647.10
2019-03-29T19:12:10.639Z,102643.00
2019-03-29T19:14:41.598Z,102641.91
2019-03-29T19:17:09.345Z,102644.72
2019-03-29T19:19:37.967Z,102645.00
2019-03-29T19:22:06.468Z,102644.30
2019-03-29T19:24:34.938Z,102645.80
2019-03-29T19:27:03.424Z,102643.48
2019-03-29T19:29:31.929Z,102638.96
2019-03-29T19:32:00.619Z,102642.26
2019-03-29T19:34:29.086Z,102638.62
2019-03-29T19:36:57.597Z,102645.39
2019-03-29T19:39:26.058Z,102634.84
2019-03-29T19:41:54.530Z,102635.59
2019-03-29T19:44:23.038Z,102632.40
2019-03-29T19:46:51.528Z,102639.69
2019-03-29T19:49:19.995Z,102635.24
2019-03-29T19:51:48.651Z,102641.18
2019-03-29T19:54:17.189Z,102639.75
2019-03-29T19:56:45.658Z,102640.41
2019-03-29T19:59:14.239Z,102643.72
2019-03-29T20:01:42.721Z,102642.28
2019-03-29T20:04:11.205Z,102638.26
2019-03-29T20:06:39.721Z,102645.48
2019-03-29T20:09:09.937Z,102638.92
2019-03-29T20:11:38.627Z,102644.94
2019-03-29T20:14:07.358Z,102644.80
2019-03-29T20:16:35.814Z,102641.23
2019-03-29T20:19:04.285Z,102644.57
2019-03-29T20:21:32.794Z,102637.07
2019-03-29T20:24:01.257Z,102639.16
2019-03-29T20:26:29.715Z,102629.95
2019-03-29T20:28:58.222Z,102629.81
2019-03-29T20:31:26.676Z,102629.72
2019-03-29T20:33:55.132Z,102633.53
2019-03-29T20:36:23.657Z,102626.49
2019-03-29T20:38:52.097Z,102628.62
2019-03-29T20:41:20.577Z,102617.70
2019-03-29T20:43:49.103Z,102628.89
2019-03-29T20:46:17.560Z,102624.50
2019-03-29T20:48:46.060Z,102620.06
2019-03-29T20:51:14.565Z,102618.71
2019-03-29T20:53:43.739Z,102622.52
2019-03-29T20:56:12.394Z,102615.48
2019-03-29T20:58:40.993Z,102618.40
2019-03-29T21:01:09.469Z,102614.92
2019-03-29T21:03:37.937Z,102617.42
2019-03-29T21:06:06.437Z,102614.78
2019-03-29T21:08:34.905Z,102609.05
2019-03-29T21:11:03.378Z,102614.23
2019-03-29T21:13:31.917Z,102611.13
2019-03-29T21:16:01.427Z,102609.84
2019-03-29T21:18:29.887Z,102610.58
2019-03-29T21:20:58.397Z,102611.82
2019-03-29T21:23:26.827Z,102616.03
2019-03-29T21:25:55.327Z,102615.06
2019-03-29T21:28:23.791Z,102606.27
2019-03-29T21:30:52.326Z,102609.98
2019-03-29T21:33:20.846Z,102608.12
2019-03-29T21:35:49.305Z,102604.98
2019-03-29T21:38:17.760Z,102604.50
2019-03-29T21:40:46.252Z,102603.53
2019-03-29T21:43:14.782Z,102602.15
2019-03-29T21:45:43.232Z,102604.69
2019-03-29T21:48:27.973Z,102604.19
2019-03-29T21:50:41.934Z,102600.24
2019-03-29T21:53:10.395Z,102600.57
2019-03-29T21:55:38.887Z,102600.42
2019-03-29T21:58:07.357Z,102601.62
2019-03-29T22:00:35.831Z,102598.42
2019-03-29T22:03:04.312Z,102594.36
2019-03-29T22:05:32.757Z,102591.72
2019-03-29T22:08:01.233Z,102560.94
2019-03-29T22:10:29.731Z,102589.30
2019-03-29T22:12:58.262Z,102591.71
2019-03-29T22:15:26.721Z,102592.45
2019-03-29T22:17:55.549Z,102588.00
2019-03-29T22:20:24.018Z,102591.83
2019-03-29T22:22:52.555Z,102590.86
2019-03-29T22:25:21.062Z,102590.77
2019-03-29T22:27:49.524Z,102595.38
2019-03-29T22:30:18.051Z,102591.44
2019-03-29T22:32:46.543Z,102590.88
2019-03-29T22:35:15.001Z,102591.11
2019-03-29T22:37:43.461Z,102593.55
2019-03-29T22:40:12.028Z,102591.60
2019-03-29T22:42:40.488Z,102590.48
2019-03-29T22:45:09.188Z,102585.97
2019-03-29T22:47:37.707Z,102584.02
2019-03-29T22:50:06.732Z,102580.41
2019-03-29T22:52:35.207Z,102584.59
2019-03-29T22:55:07.276Z,102580.06
2019-03-29T22:57:35.740Z,102578.20
2019-03-29T23:00:10.434Z,102574.48
2019-03-29T23:02:38.941Z,102573.92
2019-03-29T23:05:08.071Z,102576.45
2019-03-29T23:07:36.544Z,102572.48
2019-03-29T23:10:06.353Z,102572.48
2019-03-29T23:12:34.779Z,102570.20
2019-03-29T23:15:03.323Z,102572.32
2019-03-29T23:17:31.799Z,102575.22
2019-03-29T23:20:00.385Z,102567.38
2019-03-29T23:22:28.844Z,102573.37
2019-03-29T23:24:57.352Z,102567.59
2019-03-29T23:27:25.821Z,102570.81
2019-03-29T23:29:54.291Z,102570.34
2019-03-29T23:32:22.791Z,102566.69
2019-03-29T23:34:51.250Z,102567.50
2019-03-29T23:37:19.712Z,102562.18
2019-03-29T23:39:48.214Z,102559.50
2019-03-29T23:42:16.686Z,102552.78
2019-03-29T23:44:45.147Z,102554.80
2019-03-29T23:47:13.660Z,102548.59
2019-03-29T23:49:42.120Z,102556.19
2019-03-29T23:52:10.594Z,102553.51
2019-03-29T23:54:39.087Z,102553.34
2019-03-29T23:57:07.559Z,102552.37
2019-03-29T23:59:36.034Z,102544.36
